Martha, KY

7:04 PM EST on February 01, 2015 (GMT -0500)
Green | Change Station
CLOSE
Current Station
Personal Weather Station
Location: Olive Hill, KY
Elevation: 883 ft
Nearby Weather Stations
Active Advisory: Special Statement

Elev 883 ft 38.19 °N, 83.08 °W | Updated 8 minutes ago

Rain
Rain
44.4 °F
Feels Like 42 °F
N
4.0
Wind Variable Wind from NNW
Gusts 7.4 mph

Today
High -- | Low -- °F
--% Chance of Precip.
Yesterday
High -- | Low -- °F
Precip. -- in
7:36 AM 5:54 PM
Waxing Gibbous, 96% visible
Pressure 29.72 in
Visibility 10.0 miles
Clouds Scattered Clouds 3200 ft
Mostly Cloudy 4000 ft
Overcast 4600 ft
Windchill 42 °F
Dew Point 36 °F
Humidity 71%
Rainfall -999.00 in
Snow Depth Not available.
UV 0 out of 12
Pollen .10 out of 12
Air Quality Not available.
Flu Activity Not available.
METAR KSJS 012355Z AUTO 18009KT 10SM RA SCT032 BKN040 OVC046 07/06 A2972 RMK AO2 T00700060 10098 20070

More Conditions Fewer Conditions

Pressure 29.72 in
Visibility 10.0 miles
Clouds Scattered Clouds 3200 ft
Mostly Cloudy 4000 ft
Overcast 4600 ft
Windchill 42 °F
Dew Point 36 °F
Humidity 71%
Rainfall -999.00 in
Snow Depth Not available.
UV 0 out of 12
Pollen .10 out of 12
Air Quality Not available.
Flu Activity Not available.
METAR KSJS 012355Z AUTO 18009KT 10SM RA SCT032 BKN040 OVC046 07/06 A2972 RMK AO2 T00700060 10098 20070

More Conditions Fewer Conditions

10-Day Weather Forecast

Almanac

Astronomy

Feb. 01, 2015 Rise Set
Actual Time
Civil Twilight
Nautical Twilight
Astronomical Twilight
Moon
Length of Visible Light
Length of Day
Tomorrow will be .
, % of the Moon is Illuminated

Today's Extremes

State Highs State Lows

Community

WunderPhotos

Upload Photos

1,792,618 photos uploaded!

WunderBlogs® & News

Nearby

Air Quality

  Air Quality AQ Index Pollutant
Not available.

Snow Depth

Station Depth Elevation

Earthquake Activity

City Distance Mag. Time & Date
Minimum magnitude displayed is 2.5.

Coastal Water Temperatures

Place Temperature

Nearby Weather Stations